Home > Products > Valid Products > TAF

000
FTUS44 KEPZ 281700 RRA
TAFELP
TAF
KELP 281744Z 2818/2918 28010G17KT P6SM FEW140 FEW250
     FM290300 27008KT P6SM FEW140 FEW250
     FM291600 27010KT P6SM FEW140 SCT250=



000
FTUS44 KEPZ 281700 RRA
TAFDMN
TAF
KDMN 281744Z 2818/2918 25007KT P6SM FEW200
     FM282000 25010G20KT P6SM FEW200
     FM290300 28008KT P6SM FEW140 FEW250=



000
FTUS44 KEPZ 281700 RRA
TAFTCS
TAF
KTCS 281744Z 2818/2918 11007KT P6SM FEW200
     FM282000 19010G18KT P6SM FEW200
     FM290300 29011KT P6SM FEW140 FEW250
     FM291600 06008KT P6SM FEW140 SCT250=



000
FTUS44 KEPZ 281100
TAFTCS
TAF
KTCS 281139Z 2812/2912 31006KT P6SM SCT250
     FM281800 21012KT P6SM SKC=



000
FTUS44 KEPZ 281100
TAFELP
TAF
KELP 281139Z 2812/2912 27007KT P6SM SCT250
     FM281900 26012KT P6SM SKC=



000
FTUS44 KEPZ 281100
TAFDMN
TAF
KDMN 281139Z 2812/2912 25006KT P6SM SCT250
     FM281900 26013G20KT P6SM SKC=



000
FTUS44 KEPZ 280500
TAFTCS
TAF
KTCS 280521Z 2806/2906 31005KT P6SM SCT200
     FM281300 VRB03KT P6SM SCT250
     FM281700 17007KT P6SM FEW250=



000
FTUS44 KEPZ 280500
TAFDMN
TAF
KDMN 280521Z 2806/2906 22006KT P6SM SCT200
     FM281800 25012KT P6SM FEW250
     FM282200 25015G23KT P6SM FEW250=



000
FTUS44 KEPZ 280500
TAFELP
TAF
KELP 280521Z 2806/2906 35005KT P6SM FEW120 SCT200
     FM280900 VRB04KT P6SM SCT250
     FM281900 24012KT P6SM SCT250=



000
FTUS44 KEPZ 280500
TAFDMN
TAF
KDMN 280521Z 2806/2906 22006KT P6SM SCT200
     FM281800 25012KT P6SM FEW250
     FM282200 25015G23KT P6SM FEW250=



000
FTUS44 KEPZ 280500
TAFTCS
TAF
KTCS 280521Z 2806/2906 31005KT P6SM SCT200
     FM281300 VRB03KT P6SM SCT250
     FM281700 17007KT P6SM FEW250=



000
FTUS44 KEPZ 280500
TAFELP
TAF
KELP 280521Z 2806/2906 35005KT P6SM FEW120 SCT200
     FM280900 VRB04KT P6SM SCT250
     FM281900 24012KT P6SM SCT250=



000
FTUS44 KEPZ 272300
TAFELP
TAF
KELP 272328Z 2800/2824 23004KT P6SM FEW150 BKN250
     FM280300 12005KT P6SM SCT250
     FM281900 23012KT P6SM SCT250=



000
FTUS44 KEPZ 272300
TAFDMN
TAF
KDMN 272328Z 2800/2824 22006KT P6SM SCT200
     FM281800 25012KT P6SM FEW250=



000
FTUS44 KEPZ 272300
TAFTCS
TAF
KTCS 272328Z 2800/2824 17010KT P6SM FEW150 SCT220
     FM280300 26008KT P6SM SCT220
     FM280600 31005KT P6SM SCT250
     FM281700 17007KT P6SM SCT250=



000
FTUS44 KEPZ 271800 RRA
TAFDMN
TAF
KDMN 271812Z 2718/2818 20007KT P6SM BKN250
     FM272100 23008G16KT P6SM BKN250
     FM280100 25010KT P6SM BKN250=



000
FTUS44 KEPZ 271800 RRA
TAFELP
TAF
KELP 271812Z 2718/2818 18008KT P6SM BKN250
     FM272000 19007G15KT P6SM BKN250
     FM272300 25009KT P6SM BKN250=



000
FTUS44 KEPZ 271800 RRA
TAFTCS
TAF
KTCS 271812Z 2718/2818 17012G20KT P6SM BKN250
     FM280200 26008KT P6SM BKN250=



000
FTUS44 KEPZ 271800 RRA
TAFELP
TAF
KELP 271812Z 2718/2818 18008KT P6SM BKN250
     FM272000 19007G15KT P6SM BKN250
     FM272300 25009KT P6SM BKN250=



000
FTUS44 KEPZ 271800 RRA
TAFDMN
TAF
KDMN 271812Z 2718/2818 20007KT P6SM BKN250
     FM272100 23008G16KT P6SM BKN250
     FM280100 25010KT P6SM BKN250=



000
FTUS44 KEPZ 271800 RRA
TAFTCS
TAF
KTCS 271812Z 2718/2818 17012G20KT P6SM BKN250
     FM280200 26008KT P6SM BKN250=



000
FTUS44 KEPZ 271100
TAFTCS
TAF
KTCS 271136Z 2712/2812 29007KT P6SM BKN250
     FM271700 19012G20KT P6SM BKN250
     FM280200 26008KT P6SM BKN250=



000
FTUS44 KEPZ 271100
TAFELP
TAF
KELP 271136Z 2712/2812 VRB05KT P6SM FEW250
     FM271800 18008KT P6SM FEW090 BKN250
     FM280100 26009KT P6SM BKN250=



000
FTUS44 KEPZ 271100
TAFDMN
TAF
KDMN 271136Z 2712/2812 27006KT P6SM FEW250
     FM271700 19009KT P6SM BKN250
     FM280100 27010KT P6SM BKN250=



000
FTUS44 KEPZ 270500 RRA
TAFTCS
TAF
KTCS 270554Z 2706/2806 21006KT P6SM BKN250
     FM271900 20012G22KT P6SM BKN250
     FM280200 21012KT P6SM BKN250=



000
FTUS44 KEPZ 270500 RRA
TAFTCS
TAF
KTCS 270554Z 2706/2806 21006KT P6SM BKN250
     FM271900 20012G22KT P6SM BKN250
     FM280200 21012KT P6SM BKN250=



000
FTUS44 KEPZ 270500 RRA
TAFDMN
TAF
KDMN 270554Z 2706/2806 27006KT P6SM FEW250
     FM271800 19010G20KT P6SM BKN250
     FM280100 24008KT P6SM SCT250=



000
FTUS44 KEPZ 270500 RRA
TAFELP
TAF
KELP 270554Z 2706/2806 21008KT P6SM FEW250
     FM271900 21010G20KT P6SM BKN250
     FM280200 31008KT P6SM BKN250=



000
FTUS44 KEPZ 270500 RRA
TAFDMN
TAF
KDMN 270554Z 2706/2806 27006KT P6SM FEW250
     FM271800 19010G20KT P6SM BKN250
     FM280100 24008KT P6SM SCT250=



000
FTUS44 KEPZ 270500 RRA
TAFELP
TAF
KELP 270554Z 2706/2806 21008KT P6SM FEW250
     FM271900 21010G20KT P6SM BKN250
     FM280200 31008KT P6SM BKN250=



000
FTUS44 KEPZ 262300 RRA
TAFTCS
TAF
KTCS 262355Z 2700/2724 18015G22KT P6SM FEW090 FEW250
     FM270200 27006KT P6SM FEW250
     FM271900 20012G22KT P6SM BKN250=



000
FTUS44 KEPZ 262300 RRA
TAFDMN
TAF
KDMN 262355Z 2700/2724 25010G20KT P6SM SCT250
     FM270200 27006KT P6SM FEW250
     FM271800 19010G20KT P6SM BKN250=



000
FTUS44 KEPZ 262300 RRA
TAFELP
TAF
KELP 262355Z 2700/2724 21010KT P6SM SCT250
     FM271900 21010G20KT P6SM BKN250=



000
FTUS44 KEPZ 262300 RRA
TAFTCS
TAF
KTCS 262355Z 2700/2724 18015G22KT P6SM FEW090 FEW250
     FM270200 27006KT P6SM FEW250
     FM271900 20012G22KT P6SM BKN250=



000
FTUS44 KEPZ 262300 RRA
TAFDMN
TAF
KDMN 262355Z 2700/2724 25010G20KT P6SM SCT250
     FM270200 27006KT P6SM FEW250
     FM271800 19010G20KT P6SM BKN250=



000
FTUS44 KEPZ 262300 RRA
TAFELP
TAF
KELP 262355Z 2700/2724 21010KT P6SM SCT250
     FM271900 21010G20KT P6SM BKN250=



000
FTUS44 KEPZ 261700
TAFDMN
TAF
KDMN 261740Z 2618/2718 22005KT P6SM SCT250
     FM262100 24010G20KT P6SM SCT250
     FM270000 25005KT P6SM SCT250=



000
FTUS44 KEPZ 261700
TAFELP
TAF
KELP 261740Z 2618/2718 25005KT P6SM SCT250
     FM270200 13010KT P6SM SCT250
     FM270500 18005KT P6SM SCT250=



000
FTUS44 KEPZ 261700
TAFTCS
TAF
KTCS 261740Z 2618/2718 13007KT P6SM FEW090 SCT250
     FM262100 18015G18KT P6SM FEW090 FEW250
     FM270100 27006KT P6SM FEW250=



000
FTUS44 KEPZ 261100
TAFELP
TAF
KELP 261140Z 2612/2712 VRB05KT P6SM SCT250
     FM261900 24011G18KT P6SM SCT250=



000
FTUS44 KEPZ 261100
TAFTCS
TAF
KTCS 261140Z 2612/2712 31007KT P6SM SCT250
     FM261800 20013G20KT P6SM FEW090 SCT250
     FM270400 30008KT P6SM FEW250=



000
FTUS44 KEPZ 261100
TAFDMN
TAF
KDMN 261140Z 2612/2712 34005KT P6SM SCT250
     FM261900 24012G20KT P6SM SCT250=



000
FTUS44 KEPZ 261100
TAFDMN
TAF
KDMN 261140Z 2612/2712 34005KT P6SM SCT250
     FM261900 24012G20KT P6SM SCT250=



000
FTUS44 KEPZ 261100
TAFELP
TAF
KELP 261140Z 2612/2712 VRB05KT P6SM SCT250
     FM261900 24011G18KT P6SM SCT250=



000
FTUS44 KEPZ 261100
TAFTCS
TAF
KTCS 261140Z 2612/2712 31007KT P6SM SCT250
     FM261800 20013G20KT P6SM FEW090 SCT250
     FM270400 30008KT P6SM FEW250=



000
FTUS44 KEPZ 260500
TAFDMN
TAF
KDMN 260538Z 2606/2706 33010KT P6SM SCT250
     FM261800 24012G22KT P6SM FEW250
     FM270300 26007KT P6SM FEW250=



000
FTUS44 KEPZ 260500
TAFTCS
TAF
KTCS 260538Z 2606/2706 34012G20KT P6SM FEW120
     FM260900 31010KT P6SM FEW120
     FM261700 19012G22KT P6SM BKN250
     FM270300 21010KT P6SM SCT250=



000
FTUS44 KEPZ 260500
TAFELP
TAF
KELP 260538Z 2606/2706 32011KT P6SM SCT250
     FM261600 24010G25KT P6SM FEW250
     FM270300 21010KT P6SM FEW250=



000
FTUS44 KEPZ 260500
TAFELP
TAF
KELP 260538Z 2606/2706 32011KT P6SM SCT250
     FM261600 24010G25KT P6SM FEW250
     FM270300 21010KT P6SM FEW250=



000
FTUS44 KEPZ 260500
TAFTCS
TAF
KTCS 260538Z 2606/2706 34012G20KT P6SM FEW120
     FM260900 31010KT P6SM FEW120
     FM261700 19012G22KT P6SM BKN250
     FM270300 21010KT P6SM SCT250=



000
FTUS44 KEPZ 260500
TAFDMN
TAF
KDMN 260538Z 2606/2706 33010KT P6SM SCT250
     FM261800 24012G22KT P6SM FEW250
     FM270300 26007KT P6SM FEW250=



000
FTUS44 KEPZ 260500 AAA
TAFELP
TAF AMD
KELP 260512Z 2605/2624 30010G20KT P6SM SCT250
     FM261700 24010G25KT P6SM FEW250=



000
FTUS44 KEPZ 252300 RRA
TAFDMN
TAF
KDMN 252344Z 2600/2624 27018G25KT P6SM SCT120
     FM260300 27010KT P6SM SCT250
     FM261800 24012G22KT P6SM FEW250=



000
FTUS44 KEPZ 252300 RRA
TAFELP
TAF
KELP 252344Z 2600/2624 20015G25KT P6SM SCT100
     FM260400 25010KT P6SM SCT250
     FM261700 24010G25KT P6SM FEW250=



000
FTUS44 KEPZ 252300 RRA
TAFTCS
TAF
KTCS 252344Z 2600/2624 33015G20KT P6SM BKN250
     FM260200 30010KT P6SM FEW120
     FM261700 19012G22KT P6SM BKN250=



000
FTUS44 KEPZ 252300 RRA
TAFTCS
TAF
KTCS 252344Z 2600/2624 33015G20KT P6SM BKN250
     FM260200 30010KT P6SM FEW120
     FM261700 19012G22KT P6SM BKN250=



000
FTUS44 KEPZ 252300 RRA
TAFDMN
TAF
KDMN 252344Z 2600/2624 27018G25KT P6SM SCT120
     FM260300 27010KT P6SM SCT250
     FM261800 24012G22KT P6SM FEW250=



000
FTUS44 KEPZ 252300 RRA
TAFELP
TAF
KELP 252344Z 2600/2624 20015G25KT P6SM SCT100
     FM260400 25010KT P6SM SCT250
     FM261700 24010G25KT P6SM FEW250=



    US Dept of Commerce
    National Oceanic and Atmospheric Administration
    National Weather Service
    1325 East West Highway
    Silver Spring, MD 20910
    Page Author: NWS Internet Services Team
Disclaimer
Information Quality
Credits
Glossary
Privacy Policy
Freedom of Information Act (FOIA)
About Us
Career Opportunities